Main page
METAR-TAF:

METAR-TAF

Airports :

Cairo International Airport

Cairo, Egypt

latitude: 30-08N, longitude: 031-24E, elevation: 64 m

Current weather observation

The report was made 30 minutes ago, at 11:00 UTC
Wind 6 kt from the North
Temperature 33°C
Humidity 39%
Pressure 1008 hPa
Visibility 10 km or more
no clouds below 1500 m and no cumulonimbus

METAR: HECA 151100Z 01006KT CAVOK 33/17 Q1008 NOSIG

Time: 13:30 (11:30 UTC)

Forecast

The report was made 6 hours and 30 minutes ago, at 05:00 UTC
Forecast valid from 15 at 06 UTC to 16 at 12 UTC
Wind 8 kt from the North/Northwest
Visibility 10 km or more
no clouds below 1500 m and no cumulonimbus
Temporary
from 15 at 06 UTC to 15 at 08 UTC
Wind 3 kt from variable directions
Visibility: 4000 m
Scattered clouds at a height of 2500 ft
mist

TAF: HECA 150500Z 1506/1612 34008KT CAVOK TEMPO 1506/1508 VRB03KT 4000 BR SCT025

Weather observations and forecasts of more than 4000 airports (METAR and TAF reports).

The available stations are represented by yellow and red dots on the map.

Hover mouse over dot to see the name of the station.

Then click to see weather observations and forecasts.

To change the map : click on the green buttons with a black cross to zoom in, on the green button with a dash to zoom out, or on the green arrows for adjacent maps.


METAR-TAF: